Aspen Hill, Maryland
Current Conditions -  °F | °C
As of 9:55 AM on Thursday 23 Oct 2014 (Local Time) from KGAI Reporting Station
Broken Clouds Broken Clouds  
Wind Chill: 54°   Ceiling: 3400
Heat Index: 54°   Visibility: 10mi
Dew Point: 43°   Wind: 18mph
Humidity: 67%   Direction: 310°NW
Pressure: 29.92"   Gusts: 26mph
Location:  39.08°N, 77.09°W
Report Text: KGAI 231355Z 31016G23KT 10SM BKN034 12/06 A2992 RMK AO1
Loading
Personal Weather Stations






























Interactive Weather Map New forecast layout! Learn more

10-Day Weather Forecast

Advertisements
Track Severe Weather on mobile